createdAt,value
2023-05-09T00:00:35.185Z,4.60
2023-05-09T00:03:05.940Z,4.40
2023-05-09T00:05:34.094Z,5.03
2023-05-09T00:08:02.340Z,5.30
2023-05-09T00:10:31.011Z,4.97
2023-05-09T00:13:01.017Z,5.50
2023-05-09T00:15:29.365Z,5.13
2023-05-09T00:17:57.587Z,4.97
2023-05-09T00:20:25.859Z,4.90
2023-05-09T00:22:54.051Z,4.70
2023-05-09T00:25:22.125Z,4.80
2023-05-09T00:27:50.141Z,5.47
2023-05-09T00:30:19.677Z,4.33
2023-05-09T00:32:47.937Z,5.17
2023-05-09T00:35:16.376Z,5.00
2023-05-09T00:37:44.595Z,4.67
2023-05-09T00:40:13.787Z,4.73
2023-05-09T00:42:41.869Z,4.67
2023-05-09T00:45:11.142Z,4.80
2023-05-09T00:47:40.703Z,4.80
2023-05-09T00:50:10.564Z,5.60
2023-05-09T00:52:39.898Z,4.63
2023-05-09T00:55:09.856Z,4.70
2023-05-09T00:57:38.167Z,4.80
2023-05-09T01:00:13.073Z,5.57
2023-05-09T01:02:44.190Z,4.90
2023-05-09T01:05:13.378Z,5.40
2023-05-09T01:07:47.365Z,5.10
2023-05-09T01:10:24.637Z,5.27
2023-05-09T01:13:00.095Z,5.60
2023-05-09T01:15:32.989Z,5.40
2023-05-09T01:18:10.490Z,5.33
2023-05-09T01:20:45.651Z,5.10
2023-05-09T01:23:41.493Z,5.40
2023-05-09T01:26:19.326Z,5.80
2023-05-09T01:29:07.572Z,4.50
2023-05-09T01:31:41.942Z,4.97
2023-05-09T01:34:12.424Z,4.90
2023-05-09T01:36:43.633Z,4.80
2023-05-09T01:39:14.642Z,5.40
2023-05-09T01:41:42.722Z,5.07
2023-05-09T01:44:14.856Z,4.90
2023-05-09T01:46:45.563Z,5.57
2023-05-09T01:49:14.210Z,5.40
2023-05-09T01:51:43.864Z,4.83
2023-05-09T01:54:13.605Z,5.07
2023-05-09T01:56:43.109Z,5.00
2023-05-09T01:59:16.080Z,5.10
2023-05-09T02:01:46.866Z,5.13
2023-05-09T02:04:16.889Z,5.43
2023-05-09T02:06:45.619Z,4.90
2023-05-09T02:09:13.889Z,5.90
2023-05-09T02:11:41.839Z,5.73
2023-05-09T02:14:09.884Z,6.33
2023-05-09T02:16:39.444Z,6.10
2023-05-09T02:19:09.063Z,5.90
2023-05-09T02:21:37.157Z,6.20
2023-05-09T02:24:06.062Z,6.07
2023-05-09T02:26:34.674Z,5.60
2023-05-09T02:29:04.231Z,5.73
2023-05-09T02:31:32.672Z,6.20
2023-05-09T02:34:01.194Z,5.30
2023-05-09T02:36:31.624Z,5.30
2023-05-09T02:38:59.827Z,6.20
2023-05-09T02:41:28.996Z,6.80
2023-05-09T02:43:57.140Z,7.10
2023-05-09T02:46:25.387Z,6.33
2023-05-09T02:48:53.314Z,8.07
2023-05-09T02:51:21.281Z,7.53
2023-05-09T02:53:50.926Z,6.30
2023-05-09T02:56:19.073Z,7.50
2023-05-09T02:58:51.348Z,7.77
2023-05-09T03:01:19.481Z,6.90
2023-05-09T03:03:47.589Z,6.63
2023-05-09T03:06:15.708Z,7.53
2023-05-09T03:08:43.647Z,6.43
2023-05-09T03:11:13.072Z,6.30
2023-05-09T03:13:41.000Z,7.20
2023-05-09T03:16:09.115Z,6.07
2023-05-09T03:18:37.118Z,6.90
2023-05-09T03:21:05.466Z,6.37
2023-05-09T03:23:33.396Z,6.87
2023-05-09T03:26:01.321Z,6.10
2023-05-09T03:28:30.928Z,6.90
2023-05-09T03:30:58.894Z,6.20
2023-05-09T03:33:26.893Z,6.20
2023-05-09T03:35:54.859Z,7.10
2023-05-09T03:38:24.443Z,6.70
2023-05-09T03:40:53.751Z,8.13
2023-05-09T03:43:21.804Z,7.53
2023-05-09T03:45:51.105Z,6.10
2023-05-09T03:48:19.273Z,8.30
2023-05-09T03:50:47.223Z,6.80
2023-05-09T03:53:15.188Z,7.30
2023-05-09T03:55:43.124Z,5.97
2023-05-09T03:58:13.422Z,6.90
2023-05-09T04:00:42.180Z,6.63
2023-05-09T04:03:11.715Z,7.13
2023-05-09T04:05:39.833Z,7.60
2023-05-09T04:08:07.833Z,7.63
2023-05-09T04:10:35.960Z,7.57
2023-05-09T04:13:04.005Z,6.10
2023-05-09T04:15:32.133Z,6.70
2023-05-09T04:18:00.265Z,6.50
2023-05-09T04:20:31.264Z,8.13
2023-05-09T04:22:59.737Z,7.73
2023-05-09T04:25:29.424Z,7.80
2023-05-09T04:27:57.759Z,7.40
2023-05-09T04:30:27.154Z,6.93
2023-05-09T04:32:55.608Z,8.13
2023-05-09T04:35:23.673Z,6.40
2023-05-09T04:37:53.144Z,7.33
2023-05-09T04:40:21.126Z,6.83
2023-05-09T04:42:49.102Z,8.10
2023-05-09T04:45:17.427Z,6.40
2023-05-09T04:47:45.674Z,6.60
2023-05-09T04:50:14.000Z,6.40
2023-05-09T04:52:42.056Z,7.27
2023-05-09T04:55:11.822Z,7.70
2023-05-09T04:57:40.171Z,6.97
2023-05-09T05:00:11.457Z,7.50
2023-05-09T05:02:39.750Z,5.97
2023-05-09T05:05:18.049Z,7.00
2023-05-09T05:07:53.451Z,5.57
2023-05-09T05:10:22.774Z,6.73
2023-05-09T05:12:50.973Z,6.30
2023-05-09T05:15:19.731Z,5.43
2023-05-09T05:17:47.853Z,4.70
2023-05-09T05:20:15.989Z,5.60
2023-05-09T05:22:43.876Z,5.22
2023-05-09T05:25:12.462Z,5.28
2023-05-09T05:27:42.035Z,5.68
2023-05-09T05:30:11.010Z,5.38
2023-05-09T05:32:39.039Z,5.55
2023-05-09T05:35:07.784Z,5.43
2023-05-09T05:37:35.743Z,5.15
2023-05-09T05:40:03.891Z,4.57
2023-05-09T05:42:31.868Z,3.88
2023-05-09T05:45:04.339Z,5.00
2023-05-09T05:47:33.206Z,4.68
2023-05-09T05:50:01.802Z,4.53
2023-05-09T05:52:29.896Z,5.50
2023-05-09T05:54:57.914Z,4.33
2023-05-09T05:57:26.285Z,4.43
2023-05-09T05:59:54.279Z,4.40
2023-05-09T06:02:23.582Z,4.47
2023-05-09T06:04:52.737Z,4.50
2023-05-09T06:07:21.854Z,4.57
2023-05-09T06:09:49.734Z,4.50
2023-05-09T06:12:17.765Z,4.50
2023-05-09T06:14:45.680Z,4.97
2023-05-09T06:17:13.791Z,4.73
2023-05-09T06:19:43.201Z,3.90
2023-05-09T06:22:11.396Z,4.03
2023-05-09T06:24:39.421Z,4.87
2023-05-09T06:27:07.433Z,3.83
2023-05-09T06:29:35.328Z,4.13
2023-05-09T06:32:03.523Z,4.50
2023-05-09T06:34:31.688Z,3.87
2023-05-09T06:37:01.039Z,3.00
2023-05-09T06:39:29.222Z,3.80
2023-05-09T06:41:57.380Z,4.10
2023-05-09T06:44:25.432Z,3.22
2023-05-09T06:46:53.398Z,3.97
2023-05-09T06:49:21.339Z,3.17
2023-05-09T06:51:49.289Z,3.95
2023-05-09T06:54:18.598Z,3.70
2023-05-09T06:56:46.933Z,3.75
2023-05-09T06:59:16.578Z,4.00
2023-05-09T07:01:44.666Z,3.97
2023-05-09T07:04:12.774Z,4.10
2023-05-09T07:06:40.794Z,3.60
2023-05-09T07:09:09.039Z,3.45
2023-05-09T07:11:38.767Z,3.88
2023-05-09T07:14:06.804Z,3.60
2023-05-09T07:16:37.228Z,3.50
2023-05-09T07:19:07.839Z,3.53
2023-05-09T07:21:35.830Z,3.70
2023-05-09T07:24:03.807Z,3.25
2023-05-09T07:26:31.796Z,2.97
2023-05-09T07:29:01.152Z,3.67
2023-05-09T07:31:29.419Z,3.65
2023-05-09T07:33:57.514Z,3.55
2023-05-09T07:36:25.605Z,3.20
2023-05-09T07:38:54.539Z,2.97
2023-05-09T07:41:22.500Z,3.70
2023-05-09T07:43:50.534Z,3.20
2023-05-09T07:46:20.030Z,3.10
2023-05-09T07:48:48.200Z,4.00
2023-05-09T07:51:16.280Z,3.70
2023-05-09T07:53:44.326Z,3.25
2023-05-09T07:56:13.488Z,4.03
2023-05-09T07:58:41.560Z,3.03
2023-05-09T08:01:09.570Z,3.20
2023-05-09T08:03:39.012Z,2.65
2023-05-09T08:06:07.308Z,2.47
2023-05-09T08:08:36.272Z,2.83
2023-05-09T08:11:06.622Z,2.40
2023-05-09T08:13:34.583Z,3.10
2023-05-09T08:16:02.875Z,2.95
2023-05-09T08:18:31.072Z,3.53
2023-05-09T08:21:01.113Z,3.17
2023-05-09T08:23:30.380Z,3.25
2023-05-09T08:25:59.370Z,3.15
2023-05-09T08:28:28.807Z,3.40
2023-05-09T08:30:58.161Z,3.50
2023-05-09T08:33:26.426Z,3.28
2023-05-09T08:35:54.798Z,3.25
2023-05-09T08:38:24.808Z,2.63
2023-05-09T08:40:52.800Z,3.42
2023-05-09T08:43:24.456Z,4.10
2023-05-09T08:45:55.365Z,3.70
2023-05-09T08:48:24.234Z,3.70
2023-05-09T08:50:52.326Z,3.38
2023-05-09T08:53:21.513Z,3.42
2023-05-09T08:55:51.076Z,3.55
2023-05-09T08:58:22.649Z,3.03
2023-05-09T09:00:51.478Z,3.70
2023-05-09T09:03:19.526Z,3.17
2023-05-09T09:05:49.339Z,3.60
2023-05-09T09:08:19.042Z,3.50
2023-05-09T09:10:48.420Z,3.40
2023-05-09T09:13:19.141Z,3.60
2023-05-09T09:15:49.166Z,2.92
2023-05-09T09:18:23.076Z,2.80
2023-05-09T09:20:54.621Z,2.97
2023-05-09T09:23:25.860Z,3.17
2023-05-09T09:26:00.042Z,2.78
2023-05-09T09:28:29.996Z,2.80
2023-05-09T09:30:58.315Z,2.90
2023-05-09T09:33:27.616Z,2.85
2023-05-09T09:35:57.238Z,2.95
2023-05-09T09:38:26.895Z,3.30
2023-05-09T09:40:55.932Z,2.90
2023-05-09T09:43:30.184Z,3.17
2023-05-09T09:45:58.499Z,3.58
2023-05-09T09:48:27.303Z,3.25
2023-05-09T09:50:56.912Z,3.08
2023-05-09T09:53:30.244Z,2.72
2023-05-09T09:55:58.533Z,2.92
2023-05-09T09:58:26.572Z,2.80
2023-05-09T10:01:09.684Z,2.88
2023-05-09T10:03:39.082Z,2.60
2023-05-09T10:06:11.088Z,2.72
2023-05-09T10:08:39.061Z,2.88
2023-05-09T10:11:07.331Z,2.88
2023-05-09T10:13:37.526Z,2.92
2023-05-09T10:16:07.031Z,2.47
2023-05-09T10:18:37.368Z,2.60
2023-05-09T10:21:08.933Z,3.17
2023-05-09T10:23:39.351Z,2.80
2023-05-09T10:26:17.584Z,2.78
2023-05-09T10:28:49.066Z,2.42
2023-05-09T10:31:22.724Z,2.45
2023-05-09T10:33:53.154Z,2.65
2023-05-09T10:36:24.438Z,2.85
2023-05-09T10:38:55.204Z,2.08
2023-05-09T10:41:24.009Z,2.30
2023-05-09T10:43:52.578Z,3.05
2023-05-09T10:46:20.848Z,3.03
2023-05-09T10:48:49.757Z,2.72
2023-05-09T10:51:19.419Z,3.28
2023-05-09T10:53:49.035Z,2.50
2023-05-09T10:56:29.685Z,3.13
2023-05-09T10:58:57.954Z,2.75
2023-05-09T11:01:35.189Z,2.83
2023-05-09T11:04:09.971Z,2.88
2023-05-09T11:06:46.109Z,3.13
2023-05-09T11:09:34.111Z,2.63
2023-05-09T11:12:09.318Z,2.40
2023-05-09T11:14:42.508Z,2.70
2023-05-09T11:17:12.423Z,3.42
2023-05-09T11:20:00.026Z,2.78
2023-05-09T11:22:32.409Z,2.63
2023-05-09T11:25:06.017Z,2.17
2023-05-09T11:27:40.736Z,2.50
2023-05-09T11:30:10.060Z,2.03
2023-05-09T11:32:47.193Z,1.80
2023-05-09T11:35:17.597Z,2.30
2023-05-09T11:37:49.046Z,2.38
2023-05-09T11:40:18.461Z,1.77
2023-05-09T11:42:48.004Z,2.17
2023-05-09T11:45:17.464Z,2.30
2023-05-09T11:47:47.240Z,2.03
2023-05-09T11:50:17.370Z,1.77
2023-05-09T11:52:47.339Z,2.00
2023-05-09T11:55:19.806Z,1.80
2023-05-09T11:57:49.186Z,1.75
2023-05-09T12:00:18.372Z,1.92
2023-05-09T12:02:47.215Z,1.70
2023-05-09T12:05:17.551Z,2.10
2023-05-09T12:07:48.090Z,1.95
2023-05-09T12:10:20.997Z,1.70
2023-05-09T12:12:50.866Z,1.83
2023-05-09T12:15:20.122Z,1.70
2023-05-09T12:17:51.253Z,1.80
2023-05-09T12:20:20.057Z,1.77
2023-05-09T12:22:54.140Z,2.28
2023-05-09T12:25:23.674Z,2.07
2023-05-09T12:27:54.668Z,2.23
2023-05-09T12:30:23.235Z,1.63
2023-05-09T12:32:51.468Z,1.63
2023-05-09T12:35:23.467Z,1.70
2023-05-09T12:38:00.098Z,1.60
2023-05-09T12:40:28.887Z,2.07
2023-05-09T12:43:00.973Z,1.80
2023-05-09T12:45:29.230Z,2.07
2023-05-09T12:47:58.641Z,2.00
2023-05-09T12:50:34.909Z,1.70
2023-05-09T12:53:05.313Z,1.70
2023-05-09T12:55:40.716Z,2.20
2023-05-09T12:58:09.088Z,1.90
2023-05-09T13:00:44.520Z,1.40
2023-05-09T13:03:25.224Z,1.80
2023-05-09T13:05:57.252Z,1.80
2023-05-09T13:08:27.927Z,1.30
2023-05-09T13:11:08.032Z,1.60
2023-05-09T13:13:43.423Z,1.93
2023-05-09T13:16:14.061Z,1.60
2023-05-09T13:18:43.775Z,1.53
2023-05-09T13:21:11.704Z,1.47
2023-05-09T13:23:42.258Z,1.80
2023-05-09T13:26:10.445Z,2.00
2023-05-09T13:28:38.420Z,1.83
2023-05-09T13:31:06.889Z,1.90
2023-05-09T13:33:35.124Z,1.87
2023-05-09T13:36:03.853Z,1.50
2023-05-09T13:38:35.382Z,1.50
2023-05-09T13:41:04.810Z,1.60
2023-05-09T13:43:32.814Z,1.67
2023-05-09T13:46:00.809Z,2.00
2023-05-09T13:48:28.974Z,1.60
2023-05-09T13:50:57.762Z,1.40
2023-05-09T13:53:25.726Z,1.53
2023-05-09T13:55:53.608Z,1.90
2023-05-09T13:58:23.127Z,1.60
2023-05-09T14:00:51.552Z,1.90
2023-05-09T14:03:19.457Z,2.27
2023-05-09T14:05:48.254Z,1.70
2023-05-09T14:08:16.671Z,1.90
2023-05-09T14:10:44.807Z,2.00
2023-05-09T14:13:12.992Z,2.10
2023-05-09T14:15:42.406Z,2.17
2023-05-09T14:18:10.541Z,2.03
2023-05-09T14:20:40.433Z,2.10
2023-05-09T14:23:08.380Z,1.30
2023-05-09T14:25:36.399Z,2.03
2023-05-09T14:28:04.504Z,1.80
2023-05-09T14:30:32.606Z,2.03
2023-05-09T14:33:01.934Z,1.83
2023-05-09T14:35:32.819Z,2.10
2023-05-09T14:38:01.013Z,1.97
2023-05-09T14:40:32.014Z,1.90
2023-05-09T14:43:02.370Z,1.80
2023-05-09T14:45:30.489Z,1.70
2023-05-09T14:47:58.782Z,2.17
2023-05-09T14:50:28.126Z,1.77
2023-05-09T14:52:56.176Z,1.70
2023-05-09T14:55:24.347Z,2.53
2023-05-09T14:57:52.272Z,2.43
2023-05-09T15:00:22.273Z,2.07
2023-05-09T15:02:50.872Z,2.00
2023-05-09T15:05:19.243Z,2.40
2023-05-09T15:07:48.615Z,2.43
2023-05-09T15:10:16.844Z,2.43
2023-05-09T15:12:45.211Z,1.77
2023-05-09T15:15:15.167Z,1.93
2023-05-09T15:17:44.691Z,2.00
2023-05-09T15:20:15.171Z,2.03
2023-05-09T15:22:43.753Z,2.03
2023-05-09T15:25:13.249Z,1.87
2023-05-09T15:27:41.244Z,1.43
2023-05-09T15:30:11.830Z,2.07
2023-05-09T15:32:42.922Z,2.10
2023-05-09T15:35:11.443Z,2.10
2023-05-09T15:37:39.500Z,2.30
2023-05-09T15:40:09.219Z,2.10
2023-05-09T15:42:39.776Z,2.43
2023-05-09T15:45:09.098Z,2.50
2023-05-09T15:47:37.413Z,2.00
2023-05-09T15:50:06.217Z,1.93
2023-05-09T15:52:34.359Z,1.60
2023-05-09T15:55:02.397Z,2.40
2023-05-09T15:57:31.272Z,2.57
2023-05-09T16:00:00.803Z,2.20
2023-05-09T16:02:31.604Z,1.70
2023-05-09T16:04:59.608Z,2.50
2023-05-09T16:07:27.758Z,1.80
2023-05-09T16:09:55.866Z,2.70
2023-05-09T16:12:25.128Z,2.50
2023-05-09T16:14:53.063Z,2.60
2023-05-09T16:17:22.405Z,2.70
2023-05-09T16:19:50.404Z,2.00
2023-05-09T16:22:18.388Z,1.97
2023-05-09T16:24:47.604Z,2.00
2023-05-09T16:27:15.703Z,1.93
2023-05-09T16:29:43.702Z,2.70
2023-05-09T16:32:11.824Z,2.33
2023-05-09T16:34:41.475Z,2.77
2023-05-09T16:37:09.420Z,2.43
2023-05-09T16:39:37.355Z,2.30
2023-05-09T16:42:05.560Z,2.77
2023-05-09T16:44:33.586Z,2.47
2023-05-09T16:47:01.628Z,3.00
2023-05-09T16:49:29.715Z,3.03
2023-05-09T16:51:59.397Z,2.27
2023-05-09T16:54:27.359Z,1.87
2023-05-09T16:56:55.288Z,2.00
2023-05-09T16:59:23.338Z,1.50
2023-05-09T17:01:52.389Z,2.10
2023-05-09T17:04:20.529Z,1.80
2023-05-09T17:06:49.016Z,2.27
2023-05-09T17:09:18.698Z,1.80
2023-05-09T17:11:46.847Z,2.50
2023-05-09T17:14:14.841Z,2.30
2023-05-09T17:16:43.047Z,2.27
2023-05-09T17:19:10.994Z,1.63
2023-05-09T17:21:41.757Z,2.17
2023-05-09T17:24:10.262Z,2.43
2023-05-09T17:26:39.745Z,2.17
2023-05-09T17:29:07.756Z,2.40
2023-05-09T17:31:35.823Z,2.87
2023-05-09T17:34:04.210Z,2.40
2023-05-09T17:36:33.753Z,2.47
2023-05-09T17:39:01.827Z,2.30
2023-05-09T17:41:29.717Z,2.00
2023-05-09T17:43:59.006Z,2.17
2023-05-09T17:46:27.286Z,2.30
2023-05-09T17:48:55.278Z,2.53
2023-05-09T17:51:23.266Z,1.87
2023-05-09T17:53:52.811Z,1.97
2023-05-09T17:56:22.399Z,2.00
2023-05-09T17:58:52.994Z,2.50
2023-05-09T18:01:22.393Z,2.07
2023-05-09T18:03:50.941Z,2.50
2023-05-09T18:06:19.300Z,2.73
2023-05-09T18:08:47.684Z,3.10
2023-05-09T18:11:15.765Z,2.93
2023-05-09T18:13:43.664Z,3.33
2023-05-09T18:16:11.687Z,3.10
2023-05-09T18:18:44.807Z,2.33
2023-05-09T18:21:13.027Z,2.30
2023-05-09T18:23:42.036Z,2.17
2023-05-09T18:26:10.277Z,2.40
2023-05-09T18:28:40.143Z,2.63
2023-05-09T18:31:11.791Z,2.03
2023-05-09T18:33:41.536Z,2.40
2023-05-09T18:36:11.372Z,3.13
2023-05-09T18:38:40.887Z,2.67
2023-05-09T18:41:10.369Z,2.70
2023-05-09T18:43:42.052Z,2.47
2023-05-09T18:46:10.119Z,1.97
2023-05-09T18:48:39.112Z,2.67
2023-05-09T18:51:08.464Z,3.10
2023-05-09T18:53:37.242Z,2.43
2023-05-09T18:56:05.796Z,2.33
2023-05-09T18:58:34.016Z,2.63
2023-05-09T19:01:02.154Z,2.60
2023-05-09T19:03:30.502Z,2.20
2023-05-09T19:05:59.864Z,2.70
2023-05-09T19:08:29.950Z,2.50
2023-05-09T19:10:58.070Z,2.57
2023-05-09T19:13:26.316Z,2.60
2023-05-09T19:15:54.574Z,2.10
2023-05-09T19:18:22.520Z,2.67
2023-05-09T19:20:50.501Z,2.60
2023-05-09T19:23:19.276Z,3.10
2023-05-09T19:25:49.927Z,2.60
2023-05-09T19:28:18.928Z,2.33
2023-05-09T19:30:47.421Z,2.47
2023-05-09T19:33:15.481Z,2.30
2023-05-09T19:35:43.766Z,2.63
2023-05-09T19:38:12.004Z,2.47
2023-05-09T19:40:40.112Z,2.20
2023-05-09T19:43:09.853Z,3.13
2023-05-09T19:45:37.872Z,2.47
2023-05-09T19:48:06.175Z,2.70
2023-05-09T19:50:34.286Z,2.73
2023-05-09T19:53:02.225Z,2.10
2023-05-09T19:55:30.266Z,3.30
2023-05-09T19:57:58.252Z,2.73
2023-05-09T20:00:27.707Z,3.20
2023-05-09T20:02:55.738Z,2.90
2023-05-09T20:05:23.853Z,3.10
2023-05-09T20:07:51.982Z,2.73
2023-05-09T20:10:19.922Z,2.93
2023-05-09T20:12:48.079Z,3.50
2023-05-09T20:15:15.967Z,3.03
2023-05-09T20:17:46.449Z,2.70
2023-05-09T20:20:14.769Z,3.10
2023-05-09T20:22:42.882Z,2.83
2023-05-09T20:25:11.197Z,2.97
2023-05-09T20:27:39.209Z,3.10
2023-05-09T20:30:08.387Z,2.83
2023-05-09T20:32:36.337Z,3.47
2023-05-09T20:35:06.487Z,3.30
2023-05-09T20:37:34.495Z,2.53
2023-05-09T20:40:02.745Z,3.20
2023-05-09T20:42:30.857Z,2.90
2023-05-09T20:44:58.824Z,2.60
2023-05-09T20:47:27.074Z,2.80
2023-05-09T20:49:56.241Z,2.90
2023-05-09T20:52:27.503Z,3.27
2023-05-09T20:54:55.519Z,3.00
2023-05-09T20:57:23.473Z,2.93
2023-05-09T20:59:51.360Z,2.73
2023-05-09T21:02:19.299Z,3.10
2023-05-09T21:04:47.271Z,2.97
2023-05-09T21:07:19.052Z,2.90
2023-05-09T21:09:49.729Z,2.83
2023-05-09T21:12:17.765Z,2.83
2023-05-09T21:14:45.701Z,2.50
2023-05-09T21:17:13.757Z,2.57
2023-05-09T21:19:41.744Z,3.13
2023-05-09T21:22:09.757Z,3.37
2023-05-09T21:24:37.675Z,2.93
2023-05-09T21:27:06.941Z,3.13
2023-05-09T21:29:34.825Z,3.70
2023-05-09T21:32:02.725Z,3.50
2023-05-09T21:34:30.583Z,3.60
2023-05-09T21:36:58.460Z,2.90
2023-05-09T21:39:26.366Z,2.80
2023-05-09T21:41:54.259Z,3.47
2023-05-09T21:44:23.495Z,3.10
2023-05-09T21:46:51.439Z,3.03
2023-05-09T21:49:20.980Z,2.83
2023-05-09T21:51:49.670Z,3.57
2023-05-09T21:54:17.629Z,3.37
2023-05-09T21:56:45.556Z,2.47
2023-05-09T21:59:13.862Z,2.80
2023-05-09T22:01:45.651Z,3.60
2023-05-09T22:04:13.773Z,3.03
2023-05-09T22:06:42.544Z,2.80
2023-05-09T22:09:10.942Z,4.40
2023-05-09T22:11:38.909Z,3.30
2023-05-09T22:14:07.319Z,2.77
2023-05-09T22:16:35.329Z,3.23
2023-05-09T22:19:04.919Z,2.90
2023-05-09T22:21:33.420Z,2.73
2023-05-09T22:24:01.342Z,3.13
2023-05-09T22:26:29.279Z,4.30
2023-05-09T22:28:57.332Z,3.40
2023-05-09T22:31:25.326Z,3.40
2023-05-09T22:33:53.289Z,3.43
2023-05-09T22:36:22.834Z,3.50
2023-05-09T22:38:50.736Z,3.50
2023-05-09T22:41:18.624Z,4.17
2023-05-09T22:43:46.598Z,4.00
2023-05-09T22:46:14.547Z,4.10
2023-05-09T22:48:42.436Z,4.70
2023-05-09T22:51:10.285Z,4.63
2023-05-09T22:53:39.643Z,5.47
2023-05-09T22:56:09.404Z,4.93
2023-05-09T22:58:37.369Z,4.83
2023-05-09T23:01:05.358Z,4.60
2023-05-09T23:03:33.327Z,5.30
2023-05-09T23:06:01.229Z,4.90
2023-05-09T23:08:29.159Z,4.50
2023-05-09T23:10:58.501Z,5.47
2023-05-09T23:13:26.702Z,5.70
2023-05-09T23:15:54.714Z,6.43
2023-05-09T23:18:23.874Z,5.67
2023-05-09T23:20:51.920Z,5.00
2023-05-09T23:23:19.961Z,4.63
2023-05-09T23:25:47.910Z,4.63
2023-05-09T23:28:17.187Z,5.67
2023-05-09T23:30:45.133Z,5.30
2023-05-09T23:33:13.099Z,5.50
2023-05-09T23:35:41.011Z,5.40
2023-05-09T23:38:09.042Z,5.20
2023-05-09T23:40:37.059Z,5.27
2023-05-09T23:43:04.914Z,5.70
2023-05-09T23:45:34.209Z,5.37
2023-05-09T23:48:02.475Z,5.30
2023-05-09T23:50:30.400Z,5.30
2023-05-09T23:52:58.330Z,5.80
2023-05-09T23:55:26.218Z,5.83
2023-05-09T23:57:54.065Z,6.30
